sensor_id;sensor_type;location;lat;lon;timestamp;P1;durP1;ratioP1;P2;durP2;ratioP2
1082;SDS011;530;51.448;7.238;2023-07-13T00:00:17;5.80;;;2.17;;
1082;SDS011;530;51.448;7.238;2023-07-13T00:02:43;3.10;;;1.70;;
1082;SDS011;530;51.448;7.238;2023-07-13T00:05:09;4.87;;;1.93;;
1082;SDS011;530;51.448;7.238;2023-07-13T00:07:35;4.60;;;1.93;;
1082;SDS011;530;51.448;7.238;2023-07-13T00:10:02;1.73;;;1.33;;
1082;SDS011;530;51.448;7.238;2023-07-13T00:12:32;4.57;;;2.10;;
1082;SDS011;530;51.448;7.238;2023-07-13T00:15:01;3.90;;;2.00;;
1082;SDS011;530;51.448;7.238;2023-07-13T00:17:29;3.47;;;1.50;;
1082;SDS011;530;51.448;7.238;2023-07-13T00:19:55;3.57;;;2.10;;
1082;SDS011;530;51.448;7.238;2023-07-13T00:22:22;3.13;;;1.90;;
1082;SDS011;530;51.448;7.238;2023-07-13T00:24:51;2.60;;;1.47;;
1082;SDS011;530;51.448;7.238;2023-07-13T00:27:18;4.63;;;2.20;;
1082;SDS011;530;51.448;7.238;2023-07-13T00:29:44;3.83;;;1.90;;
1082;SDS011;530;51.448;7.238;2023-07-13T00:32:10;2.93;;;1.40;;
1082;SDS011;530;51.448;7.238;2023-07-13T00:34:37;4.97;;;1.90;;
1082;SDS011;530;51.448;7.238;2023-07-13T00:37:03;2.93;;;1.77;;
1082;SDS011;530;51.448;7.238;2023-07-13T00:39:31;4.07;;;1.60;;
1082;SDS011;530;51.448;7.238;2023-07-13T00:41:58;2.33;;;1.83;;
1082;SDS011;530;51.448;7.238;2023-07-13T00:44:23;2.90;;;2.40;;
1082;SDS011;530;51.448;7.238;2023-07-13T00:46:49;4.30;;;2.20;;
1082;SDS011;530;51.448;7.238;2023-07-13T00:49:16;2.30;;;1.53;;
1082;SDS011;530;51.448;7.238;2023-07-13T00:51:48;5.67;;;1.57;;
1082;SDS011;530;51.448;7.238;2023-07-13T00:54:30;4.30;;;2.00;;
1082;SDS011;530;51.448;7.238;2023-07-13T00:56:59;3.70;;;2.37;;
1082;SDS011;530;51.448;7.238;2023-07-13T00:59:28;3.40;;;1.87;;
1082;SDS011;530;51.448;7.238;2023-07-13T01:01:54;2.47;;;1.90;;
1082;SDS011;530;51.448;7.238;2023-07-13T01:04:20;4.10;;;1.90;;
1082;SDS011;530;51.448;7.238;2023-07-13T01:06:48;3.00;;;1.97;;
1082;SDS011;530;51.448;7.238;2023-07-13T01:09:14;4.87;;;1.57;;
1082;SDS011;530;51.448;7.238;2023-07-13T01:11:41;3.63;;;1.57;;
1082;SDS011;530;51.448;7.238;2023-07-13T01:14:07;1.80;;;1.37;;
1082;SDS011;530;51.448;7.238;2023-07-13T01:16:34;2.70;;;1.40;;
1082;SDS011;530;51.448;7.238;2023-07-13T01:19:01;5.77;;;2.80;;
1082;SDS011;530;51.448;7.238;2023-07-13T01:21:33;1.93;;;1.40;;
1082;SDS011;530;51.448;7.238;2023-07-13T01:23:59;2.17;;;1.30;;
1082;SDS011;530;51.448;7.238;2023-07-13T01:26:25;3.73;;;1.60;;
1082;SDS011;530;51.448;7.238;2023-07-13T01:28:52;3.57;;;1.73;;
1082;SDS011;530;51.448;7.238;2023-07-13T01:31:17;4.80;;;1.93;;
1082;SDS011;530;51.448;7.238;2023-07-13T01:33:43;3.20;;;1.43;;
1082;SDS011;530;51.448;7.238;2023-07-13T01:36:09;6.80;;;1.70;;
1082;SDS011;530;51.448;7.238;2023-07-13T01:38:36;3.83;;;1.40;;
1082;SDS011;530;51.448;7.238;2023-07-13T01:41:02;5.80;;;1.67;;
1082;SDS011;530;51.448;7.238;2023-07-13T01:43:28;2.90;;;1.50;;
1082;SDS011;530;51.448;7.238;2023-07-13T01:45:54;3.33;;;1.70;;
1082;SDS011;530;51.448;7.238;2023-07-13T01:48:20;2.23;;;1.50;;
1082;SDS011;530;51.448;7.238;2023-07-13T01:50:47;2.43;;;1.50;;
1082;SDS011;530;51.448;7.238;2023-07-13T01:53:12;3.87;;;1.67;;
1082;SDS011;530;51.448;7.238;2023-07-13T01:55:38;7.57;;;1.90;;
1082;SDS011;530;51.448;7.238;2023-07-13T01:58:04;3.20;;;1.80;;
1082;SDS011;530;51.448;7.238;2023-07-13T02:00:30;5.43;;;1.60;;
1082;SDS011;530;51.448;7.238;2023-07-13T02:02:56;3.50;;;2.00;;
1082;SDS011;530;51.448;7.238;2023-07-13T02:05:22;5.23;;;1.57;;
1082;SDS011;530;51.448;7.238;2023-07-13T02:07:48;2.47;;;1.33;;
1082;SDS011;530;51.448;7.238;2023-07-13T02:10:14;2.77;;;1.50;;
1082;SDS011;530;51.448;7.238;2023-07-13T02:12:41;3.70;;;1.60;;
1082;SDS011;530;51.448;7.238;2023-07-13T02:15:07;3.93;;;2.00;;
1082;SDS011;530;51.448;7.238;2023-07-13T02:17:34;12.20;;;2.53;;
1082;SDS011;530;51.448;7.238;2023-07-13T02:20:01;2.60;;;1.70;;
1082;SDS011;530;51.448;7.238;2023-07-13T02:22:27;3.83;;;2.17;;
1082;SDS011;530;51.448;7.238;2023-07-13T02:24:53;2.77;;;1.70;;
1082;SDS011;530;51.448;7.238;2023-07-13T02:27:19;3.10;;;1.63;;
1082;SDS011;530;51.448;7.238;2023-07-13T02:29:45;3.10;;;1.60;;
1082;SDS011;530;51.448;7.238;2023-07-13T02:32:10;7.33;;;1.80;;
1082;SDS011;530;51.448;7.238;2023-07-13T02:34:36;2.27;;;1.60;;
1082;SDS011;530;51.448;7.238;2023-07-13T02:37:02;4.10;;;1.33;;
1082;SDS011;530;51.448;7.238;2023-07-13T02:39:28;3.77;;;1.53;;
1082;SDS011;530;51.448;7.238;2023-07-13T02:41:54;3.40;;;1.43;;
1082;SDS011;530;51.448;7.238;2023-07-13T02:44:19;4.10;;;1.57;;
1082;SDS011;530;51.448;7.238;2023-07-13T02:46:45;5.47;;;1.93;;
1082;SDS011;530;51.448;7.238;2023-07-13T02:49:11;2.40;;;1.50;;
1082;SDS011;530;51.448;7.238;2023-07-13T02:51:36;3.60;;;1.73;;
1082;SDS011;530;51.448;7.238;2023-07-13T02:54:03;3.30;;;1.70;;
1082;SDS011;530;51.448;7.238;2023-07-13T02:56:29;2.57;;;2.03;;
1082;SDS011;530;51.448;7.238;2023-07-13T02:58:56;6.40;;;2.30;;
1082;SDS011;530;51.448;7.238;2023-07-13T03:01:23;5.17;;;2.00;;
1082;SDS011;530;51.448;7.238;2023-07-13T03:03:49;6.27;;;2.67;;
1082;SDS011;530;51.448;7.238;2023-07-13T03:06:16;4.20;;;1.80;;
1082;SDS011;530;51.448;7.238;2023-07-13T03:08:43;3.70;;;1.80;;
1082;SDS011;530;51.448;7.238;2023-07-13T03:11:13;4.20;;;1.93;;
1082;SDS011;530;51.448;7.238;2023-07-13T03:13:41;3.97;;;1.90;;
1082;SDS011;530;51.448;7.238;2023-07-13T03:16:07;3.93;;;1.10;;
1082;SDS011;530;51.448;7.238;2023-07-13T03:18:34;3.83;;;1.83;;
1082;SDS011;530;51.448;7.238;2023-07-13T03:21:00;4.43;;;1.77;;
1082;SDS011;530;51.448;7.238;2023-07-13T03:23:26;4.17;;;1.60;;
1082;SDS011;530;51.448;7.238;2023-07-13T03:26:02;3.87;;;1.50;;
1082;SDS011;530;51.448;7.238;2023-07-13T03:28:27;6.90;;;1.70;;
1082;SDS011;530;51.448;7.238;2023-07-13T03:31:03;5.40;;;1.80;;
1082;SDS011;530;51.448;7.238;2023-07-13T03:33:34;5.53;;;1.80;;
1082;SDS011;530;51.448;7.238;2023-07-13T03:36:00;3.03;;;1.90;;
1082;SDS011;530;51.448;7.238;2023-07-13T03:38:26;3.50;;;1.60;;
1082;SDS011;530;51.448;7.238;2023-07-13T03:40:52;4.63;;;1.67;;
1082;SDS011;530;51.448;7.238;2023-07-13T03:43:18;7.10;;;1.90;;
1082;SDS011;530;51.448;7.238;2023-07-13T03:45:45;3.17;;;1.70;;
1082;SDS011;530;51.448;7.238;2023-07-13T03:48:11;2.30;;;1.77;;
1082;SDS011;530;51.448;7.238;2023-07-13T03:50:37;5.40;;;2.23;;
1082;SDS011;530;51.448;7.238;2023-07-13T03:53:03;6.87;;;1.90;;
1082;SDS011;530;51.448;7.238;2023-07-13T03:55:29;2.87;;;1.73;;
1082;SDS011;530;51.448;7.238;2023-07-13T03:57:59;3.07;;;1.87;;
1082;SDS011;530;51.448;7.238;2023-07-13T04:00:45;3.33;;;1.73;;
1082;SDS011;530;51.448;7.238;2023-07-13T04:03:11;3.63;;;1.90;;
1082;SDS011;530;51.448;7.238;2023-07-13T04:05:36;3.67;;;2.43;;
1082;SDS011;530;51.448;7.238;2023-07-13T04:08:05;2.60;;;2.03;;
1082;SDS011;530;51.448;7.238;2023-07-13T04:10:31;2.70;;;1.50;;
1082;SDS011;530;51.448;7.238;2023-07-13T04:12:57;5.90;;;1.70;;
1082;SDS011;530;51.448;7.238;2023-07-13T04:15:23;4.20;;;1.83;;
1082;SDS011;530;51.448;7.238;2023-07-13T04:17:48;3.37;;;2.07;;
1082;SDS011;530;51.448;7.238;2023-07-13T04:20:14;2.03;;;1.30;;
1082;SDS011;530;51.448;7.238;2023-07-13T04:22:40;3.37;;;2.00;;
1082;SDS011;530;51.448;7.238;2023-07-13T04:25:06;4.83;;;1.73;;
1082;SDS011;530;51.448;7.238;2023-07-13T04:27:32;3.37;;;1.67;;
1082;SDS011;530;51.448;7.238;2023-07-13T04:29:57;4.10;;;2.00;;
1082;SDS011;530;51.448;7.238;2023-07-13T04:32:23;6.57;;;1.90;;
1082;SDS011;530;51.448;7.238;2023-07-13T04:34:49;4.27;;;2.23;;
1082;SDS011;530;51.448;7.238;2023-07-13T04:37:20;2.33;;;1.67;;
1082;SDS011;530;51.448;7.238;2023-07-13T04:39:45;5.70;;;2.40;;
1082;SDS011;530;51.448;7.238;2023-07-13T04:42:11;2.60;;;1.90;;
1082;SDS011;530;51.448;7.238;2023-07-13T04:44:37;3.33;;;1.60;;
1082;SDS011;530;51.448;7.238;2023-07-13T04:47:03;4.90;;;2.23;;
1082;SDS011;530;51.448;7.238;2023-07-13T04:49:29;4.47;;;2.33;;
1082;SDS011;530;51.448;7.238;2023-07-13T04:51:55;3.23;;;1.80;;
1082;SDS011;530;51.448;7.238;2023-07-13T04:54:21;3.70;;;1.80;;
1082;SDS011;530;51.448;7.238;2023-07-13T04:56:47;2.63;;;1.90;;
1082;SDS011;530;51.448;7.238;2023-07-13T04:59:12;6.63;;;2.30;;
1082;SDS011;530;51.448;7.238;2023-07-13T05:01:38;5.53;;;1.97;;
1082;SDS011;530;51.448;7.238;2023-07-13T05:04:05;2.50;;;1.90;;
1082;SDS011;530;51.448;7.238;2023-07-13T05:06:31;3.17;;;1.97;;
1082;SDS011;530;51.448;7.238;2023-07-13T05:08:57;2.83;;;2.00;;
1082;SDS011;530;51.448;7.238;2023-07-13T05:11:23;3.40;;;2.00;;
1082;SDS011;530;51.448;7.238;2023-07-13T05:13:49;3.97;;;1.63;;
1082;SDS011;530;51.448;7.238;2023-07-13T05:16:14;3.53;;;1.80;;
1082;SDS011;530;51.448;7.238;2023-07-13T05:18:40;5.13;;;2.43;;
1082;SDS011;530;51.448;7.238;2023-07-13T05:21:07;5.03;;;2.17;;
1082;SDS011;530;51.448;7.238;2023-07-13T05:23:34;2.93;;;1.60;;
1082;SDS011;530;51.448;7.238;2023-07-13T05:26:01;7.20;;;2.30;;
1082;SDS011;530;51.448;7.238;2023-07-13T05:28:27;6.03;;;2.37;;
1082;SDS011;530;51.448;7.238;2023-07-13T05:30:55;7.80;;;1.90;;
1082;SDS011;530;51.448;7.238;2023-07-13T05:33:21;3.40;;;2.07;;
1082;SDS011;530;51.448;7.238;2023-07-13T05:35:47;4.00;;;2.00;;
1082;SDS011;530;51.448;7.238;2023-07-13T05:38:12;2.63;;;2.00;;
1082;SDS011;530;51.448;7.238;2023-07-13T05:40:38;4.63;;;1.93;;
1082;SDS011;530;51.448;7.238;2023-07-13T05:43:04;2.57;;;1.77;;
1082;SDS011;530;51.448;7.238;2023-07-13T05:45:30;2.53;;;1.50;;
1082;SDS011;530;51.448;7.238;2023-07-13T05:47:56;5.23;;;2.30;;
1082;SDS011;530;51.448;7.238;2023-07-13T05:50:21;4.37;;;2.53;;
1082;SDS011;530;51.448;7.238;2023-07-13T05:52:47;10.13;;;2.43;;
1082;SDS011;530;51.448;7.238;2023-07-13T05:55:14;4.40;;;2.13;;
1082;SDS011;530;51.448;7.238;2023-07-13T05:57:40;4.40;;;2.20;;
1082;SDS011;530;51.448;7.238;2023-07-13T06:00:06;4.73;;;2.30;;
1082;SDS011;530;51.448;7.238;2023-07-13T06:02:32;4.70;;;1.97;;
1082;SDS011;530;51.448;7.238;2023-07-13T06:04:57;6.07;;;2.50;;
1082;SDS011;530;51.448;7.238;2023-07-13T06:07:23;4.03;;;2.10;;
1082;SDS011;530;51.448;7.238;2023-07-13T06:09:49;3.97;;;2.20;;
1082;SDS011;530;51.448;7.238;2023-07-13T06:12:15;4.47;;;2.60;;
1082;SDS011;530;51.448;7.238;2023-07-13T06:14:40;5.70;;;3.10;;
1082;SDS011;530;51.448;7.238;2023-07-13T06:17:07;8.97;;;3.20;;
1082;SDS011;530;51.448;7.238;2023-07-13T06:19:33;11.47;;;2.80;;
1082;SDS011;530;51.448;7.238;2023-07-13T06:21:59;4.90;;;2.50;;
1082;SDS011;530;51.448;7.238;2023-07-13T06:24:25;5.63;;;2.47;;
1082;SDS011;530;51.448;7.238;2023-07-13T06:26:51;5.47;;;2.80;;
1082;SDS011;530;51.448;7.238;2023-07-13T06:29:17;9.47;;;2.80;;
1082;SDS011;530;51.448;7.238;2023-07-13T06:31:43;6.27;;;2.77;;
1082;SDS011;530;51.448;7.238;2023-07-13T06:34:09;7.67;;;2.97;;
1082;SDS011;530;51.448;7.238;2023-07-13T06:36:34;8.27;;;3.00;;
1082;SDS011;530;51.448;7.238;2023-07-13T06:39:01;5.63;;;2.67;;
1082;SDS011;530;51.448;7.238;2023-07-13T06:41:27;6.93;;;2.77;;
1082;SDS011;530;51.448;7.238;2023-07-13T06:43:53;3.90;;;2.30;;
1082;SDS011;530;51.448;7.238;2023-07-13T06:46:22;4.77;;;2.93;;
1082;SDS011;530;51.448;7.238;2023-07-13T06:48:48;13.13;;;2.90;;
1082;SDS011;530;51.448;7.238;2023-07-13T06:51:13;7.10;;;3.13;;
1082;SDS011;530;51.448;7.238;2023-07-13T06:53:39;5.67;;;2.50;;
1082;SDS011;530;51.448;7.238;2023-07-13T06:56:05;4.60;;;2.77;;
1082;SDS011;530;51.448;7.238;2023-07-13T06:58:34;4.63;;;2.67;;
1082;SDS011;530;51.448;7.238;2023-07-13T07:01:00;5.07;;;2.53;;
1082;SDS011;530;51.448;7.238;2023-07-13T07:03:25;9.57;;;3.00;;
1082;SDS011;530;51.448;7.238;2023-07-13T07:05:51;4.50;;;2.10;;
1082;SDS011;530;51.448;7.238;2023-07-13T07:08:17;6.37;;;2.57;;
1082;SDS011;530;51.448;7.238;2023-07-13T07:10:42;7.63;;;3.10;;
1082;SDS011;530;51.448;7.238;2023-07-13T07:13:08;3.80;;;2.30;;
1082;SDS011;530;51.448;7.238;2023-07-13T07:15:35;4.00;;;2.80;;
1082;SDS011;530;51.448;7.238;2023-07-13T07:18:01;8.03;;;3.20;;
1082;SDS011;530;51.448;7.238;2023-07-13T07:20:27;6.47;;;2.70;;
1082;SDS011;530;51.448;7.238;2023-07-13T07:22:52;8.40;;;3.20;;
1082;SDS011;530;51.448;7.238;2023-07-13T07:25:18;12.67;;;3.07;;
1082;SDS011;530;51.448;7.238;2023-07-13T07:27:45;4.27;;;2.90;;
1082;SDS011;530;51.448;7.238;2023-07-13T07:30:11;6.20;;;2.93;;
1082;SDS011;530;51.448;7.238;2023-07-13T07:32:37;7.53;;;2.90;;
1082;SDS011;530;51.448;7.238;2023-07-13T07:35:03;7.03;;;2.90;;
1082;SDS011;530;51.448;7.238;2023-07-13T07:37:29;7.20;;;3.30;;
1082;SDS011;530;51.448;7.238;2023-07-13T07:39:54;5.43;;;2.90;;
1082;SDS011;530;51.448;7.238;2023-07-13T07:42:20;6.93;;;3.03;;
1082;SDS011;530;51.448;7.238;2023-07-13T07:44:46;5.07;;;2.20;;
1082;SDS011;530;51.448;7.238;2023-07-13T07:47:11;9.80;;;3.33;;
1082;SDS011;530;51.448;7.238;2023-07-13T07:49:37;5.43;;;2.80;;
1082;SDS011;530;51.448;7.238;2023-07-13T07:52:03;7.97;;;2.77;;
1082;SDS011;530;51.448;7.238;2023-07-13T07:54:29;5.30;;;2.77;;
1082;SDS011;530;51.448;7.238;2023-07-13T07:56:55;3.83;;;2.97;;
1082;SDS011;530;51.448;7.238;2023-07-13T07:59:20;9.07;;;2.90;;
1082;SDS011;530;51.448;7.238;2023-07-13T08:01:46;8.30;;;3.20;;
1082;SDS011;530;51.448;7.238;2023-07-13T08:04:13;6.43;;;3.40;;
1082;SDS011;530;51.448;7.238;2023-07-13T08:06:38;6.80;;;4.07;;
1082;SDS011;530;51.448;7.238;2023-07-13T08:09:04;11.40;;;3.63;;
1082;SDS011;530;51.448;7.238;2023-07-13T08:11:31;4.50;;;3.33;;
1082;SDS011;530;51.448;7.238;2023-07-13T08:13:56;7.80;;;3.40;;
1082;SDS011;530;51.448;7.238;2023-07-13T08:16:22;4.10;;;3.23;;
1082;SDS011;530;51.448;7.238;2023-07-13T08:18:48;8.43;;;2.83;;
1082;SDS011;530;51.448;7.238;2023-07-13T08:21:14;7.10;;;3.30;;
1082;SDS011;530;51.448;7.238;2023-07-13T08:23:40;5.20;;;2.90;;
1082;SDS011;530;51.448;7.238;2023-07-13T08:26:05;7.50;;;3.37;;
1082;SDS011;530;51.448;7.238;2023-07-13T08:28:33;5.23;;;3.67;;
1082;SDS011;530;51.448;7.238;2023-07-13T08:31:02;7.37;;;3.17;;
1082;SDS011;530;51.448;7.238;2023-07-13T08:33:29;7.13;;;4.40;;
1082;SDS011;530;51.448;7.238;2023-07-13T08:35:55;7.40;;;3.50;;
1082;SDS011;530;51.448;7.238;2023-07-13T08:38:22;10.57;;;4.17;;
1082;SDS011;530;51.448;7.238;2023-07-13T08:40:52;7.30;;;3.40;;
1082;SDS011;530;51.448;7.238;2023-07-13T08:43:22;9.53;;;3.43;;
1082;SDS011;530;51.448;7.238;2023-07-13T08:45:54;4.90;;;3.07;;
1082;SDS011;530;51.448;7.238;2023-07-13T08:48:27;4.90;;;2.93;;
1082;SDS011;530;51.448;7.238;2023-07-13T08:51:00;8.63;;;3.87;;
1082;SDS011;530;51.448;7.238;2023-07-13T08:53:36;5.43;;;3.20;;
1082;SDS011;530;51.448;7.238;2023-07-13T08:56:05;4.13;;;3.30;;
1082;SDS011;530;51.448;7.238;2023-07-13T08:58:41;6.17;;;3.73;;
1082;SDS011;530;51.448;7.238;2023-07-13T09:01:19;5.23;;;3.27;;
1082;SDS011;530;51.448;7.238;2023-07-13T09:06:42;5.60;;;3.33;;
1082;SDS011;530;51.448;7.238;2023-07-13T09:11:51;4.53;;;3.30;;
1082;SDS011;530;51.448;7.238;2023-07-13T09:14:41;4.67;;;3.27;;
1082;SDS011;530;51.448;7.238;2023-07-13T09:17:19;6.40;;;3.40;;
1082;SDS011;530;51.448;7.238;2023-07-13T09:20:33;6.60;;;3.97;;
1082;SDS011;530;51.448;7.238;2023-07-13T09:22:50;10.20;;;3.50;;
1082;SDS011;530;51.448;7.238;2023-07-13T09:25:26;6.80;;;3.50;;
1082;SDS011;530;51.448;7.238;2023-07-13T09:27:58;5.23;;;2.80;;
1082;SDS011;530;51.448;7.238;2023-07-13T09:30:33;4.53;;;3.30;;
1082;SDS011;530;51.448;7.238;2023-07-13T09:33:07;6.13;;;2.90;;
1082;SDS011;530;51.448;7.238;2023-07-13T09:35:34;4.57;;;3.00;;
1082;SDS011;530;51.448;7.238;2023-07-13T09:38:19;3.80;;;3.03;;
1082;SDS011;530;51.448;7.238;2023-07-13T09:43:25;4.60;;;2.73;;
1082;SDS011;530;51.448;7.238;2023-07-13T09:45:52;6.70;;;3.10;;
1082;SDS011;530;51.448;7.238;2023-07-13T09:48:18;5.07;;;3.50;;
1082;SDS011;530;51.448;7.238;2023-07-13T09:50:44;8.17;;;3.23;;
1082;SDS011;530;51.448;7.238;2023-07-13T09:53:15;6.47;;;2.73;;
1082;SDS011;530;51.448;7.238;2023-07-13T09:55:44;6.40;;;3.17;;
1082;SDS011;530;51.448;7.238;2023-07-13T09:58:15;6.87;;;2.80;;
1082;SDS011;530;51.448;7.238;2023-07-13T10:00:53;6.63;;;3.33;;
1082;SDS011;530;51.448;7.238;2023-07-13T10:03:24;5.23;;;3.00;;
1082;SDS011;530;51.448;7.238;2023-07-13T10:05:52;5.57;;;3.10;;
1082;SDS011;530;51.448;7.238;2023-07-13T10:08:29;4.80;;;2.87;;
1082;SDS011;530;51.448;7.238;2023-07-13T10:11:02;5.83;;;2.90;;
1082;SDS011;530;51.448;7.238;2023-07-13T10:13:37;4.00;;;3.17;;
1082;SDS011;530;51.448;7.238;2023-07-13T10:16:08;5.17;;;2.73;;
1082;SDS011;530;51.448;7.238;2023-07-13T10:18:38;4.67;;;3.13;;
1082;SDS011;530;51.448;7.238;2023-07-13T10:23:51;3.73;;;2.63;;
1082;SDS011;530;51.448;7.238;2023-07-13T10:26:26;5.80;;;3.00;;
1082;SDS011;530;51.448;7.238;2023-07-13T10:28:56;6.10;;;3.80;;
1082;SDS011;530;51.448;7.238;2023-07-13T10:31:29;2.93;;;2.53;;
1082;SDS011;530;51.448;7.238;2023-07-13T10:33:56;5.37;;;2.97;;
1082;SDS011;530;51.448;7.238;2023-07-13T10:38:53;6.47;;;2.83;;
1082;SDS011;530;51.448;7.238;2023-07-13T10:41:21;5.63;;;3.00;;
1082;SDS011;530;51.448;7.238;2023-07-13T10:43:51;6.27;;;3.20;;
1082;SDS011;530;51.448;7.238;2023-07-13T10:46:19;3.53;;;3.20;;
1082;SDS011;530;51.448;7.238;2023-07-13T10:48:48;4.47;;;3.20;;
1082;SDS011;530;51.448;7.238;2023-07-13T10:51:19;6.33;;;3.13;;
1082;SDS011;530;51.448;7.238;2023-07-13T10:53:46;6.23;;;2.90;;
1082;SDS011;530;51.448;7.238;2023-07-13T10:56:21;5.00;;;3.33;;
1082;SDS011;530;51.448;7.238;2023-07-13T10:59:01;5.13;;;2.83;;
1082;SDS011;530;51.448;7.238;2023-07-13T11:01:50;3.60;;;2.70;;
1082;SDS011;530;51.448;7.238;2023-07-13T11:04:16;5.80;;;2.87;;
1082;SDS011;530;51.448;7.238;2023-07-13T11:06:45;5.57;;;2.80;;
1082;SDS011;530;51.448;7.238;2023-07-13T11:12:26;6.50;;;3.23;;
1082;SDS011;530;51.448;7.238;2023-07-13T11:19:53;5.37;;;2.50;;
1082;SDS011;530;51.448;7.238;2023-07-13T11:23:33;5.07;;;2.47;;
1082;SDS011;530;51.448;7.238;2023-07-13T11:25:34;4.37;;;2.10;;
1082;SDS011;530;51.448;7.238;2023-07-13T11:33:22;2.90;;;2.37;;
1082;SDS011;530;51.448;7.238;2023-07-13T11:36:00;5.20;;;2.90;;
1082;SDS011;530;51.448;7.238;2023-07-13T11:38:32;4.93;;;2.50;;
1082;SDS011;530;51.448;7.238;2023-07-13T11:41:23;5.20;;;3.00;;
1082;SDS011;530;51.448;7.238;2023-07-13T11:43:55;5.57;;;2.53;;
1082;SDS011;530;51.448;7.238;2023-07-13T11:46:28;4.20;;;2.90;;
1082;SDS011;530;51.448;7.238;2023-07-13T11:48:53;5.07;;;3.43;;
1082;SDS011;530;51.448;7.238;2023-07-13T11:51:29;3.50;;;2.20;;
1082;SDS011;530;51.448;7.238;2023-07-13T11:54:00;2.10;;;1.80;;
1082;SDS011;530;51.448;7.238;2023-07-13T11:56:28;5.30;;;2.40;;
1082;SDS011;530;51.448;7.238;2023-07-13T11:58:55;4.90;;;2.90;;
1082;SDS011;530;51.448;7.238;2023-07-13T12:01:27;5.17;;;1.90;;
1082;SDS011;530;51.448;7.238;2023-07-13T12:03:58;3.20;;;2.50;;
1082;SDS011;530;51.448;7.238;2023-07-13T12:06:29;3.00;;;2.40;;
1082;SDS011;530;51.448;7.238;2023-07-13T12:09:03;4.77;;;2.33;;
1082;SDS011;530;51.448;7.238;2023-07-13T12:11:40;2.53;;;2.30;;
1082;SDS011;530;51.448;7.238;2023-07-13T12:14:14;4.03;;;2.57;;
1082;SDS011;530;51.448;7.238;2023-07-13T12:16:40;4.37;;;2.27;;
1082;SDS011;530;51.448;7.238;2023-07-13T12:19:12;2.83;;;2.57;;
1082;SDS011;530;51.448;7.238;2023-07-13T12:21:49;4.30;;;2.30;;
1082;SDS011;530;51.448;7.238;2023-07-13T12:24:18;4.40;;;2.50;;
1082;SDS011;530;51.448;7.238;2023-07-13T12:26:53;2.97;;;1.87;;
1082;SDS011;530;51.448;7.238;2023-07-13T12:29:23;2.90;;;2.10;;
1082;SDS011;530;51.448;7.238;2023-07-13T12:31:49;3.17;;;2.40;;
1082;SDS011;530;51.448;7.238;2023-07-13T12:34:18;3.07;;;2.03;;
1082;SDS011;530;51.448;7.238;2023-07-13T12:36:59;6.20;;;2.70;;
1082;SDS011;530;51.448;7.238;2023-07-13T12:39:36;3.27;;;2.20;;
1082;SDS011;530;51.448;7.238;2023-07-13T12:42:25;4.97;;;2.50;;
1082;SDS011;530;51.448;7.238;2023-07-13T12:44:57;4.27;;;2.07;;
1082;SDS011;530;51.448;7.238;2023-07-13T12:47:29;2.87;;;2.10;;
1082;SDS011;530;51.448;7.238;2023-07-13T12:49:56;3.73;;;2.30;;
1082;SDS011;530;51.448;7.238;2023-07-13T12:52:31;3.73;;;2.30;;
1082;SDS011;530;51.448;7.238;2023-07-13T12:54:59;3.80;;;2.30;;
1082;SDS011;530;51.448;7.238;2023-07-13T12:57:28;3.50;;;2.20;;
1082;SDS011;530;51.448;7.238;2023-07-13T12:59:54;4.17;;;2.17;;
1082;SDS011;530;51.448;7.238;2023-07-13T13:02:28;3.60;;;2.27;;
1082;SDS011;530;51.448;7.238;2023-07-13T13:04:56;3.57;;;2.10;;
1082;SDS011;530;51.448;7.238;2023-07-13T13:07:23;2.13;;;1.93;;
1082;SDS011;530;51.448;7.238;2023-07-13T13:09:49;2.63;;;2.00;;
1082;SDS011;530;51.448;7.238;2023-07-13T13:12:15;3.20;;;1.93;;
1082;SDS011;530;51.448;7.238;2023-07-13T13:14:42;6.50;;;2.00;;
1082;SDS011;530;51.448;7.238;2023-07-13T13:17:15;3.23;;;1.90;;
1082;SDS011;530;51.448;7.238;2023-07-13T13:19:45;7.03;;;2.50;;
1082;SDS011;530;51.448;7.238;2023-07-13T13:22:11;3.80;;;2.20;;
1082;SDS011;530;51.448;7.238;2023-07-13T13:24:37;3.60;;;2.00;;
1082;SDS011;530;51.448;7.238;2023-07-13T13:27:03;2.70;;;2.20;;
1082;SDS011;530;51.448;7.238;2023-07-13T13:29:31;5.07;;;2.27;;
1082;SDS011;530;51.448;7.238;2023-07-13T13:31:58;2.40;;;2.00;;
1082;SDS011;530;51.448;7.238;2023-07-13T13:34:24;2.87;;;1.80;;
1082;SDS011;530;51.448;7.238;2023-07-13T13:36:50;3.47;;;1.97;;
1082;SDS011;530;51.448;7.238;2023-07-13T13:39:25;2.97;;;2.03;;
1082;SDS011;530;51.448;7.238;2023-07-13T13:41:59;3.40;;;2.30;;
1082;SDS011;530;51.448;7.238;2023-07-13T13:44:25;5.17;;;2.47;;
1082;SDS011;530;51.448;7.238;2023-07-13T13:46:51;5.70;;;2.80;;
1082;SDS011;530;51.448;7.238;2023-07-13T13:49:20;6.00;;;2.60;;
1082;SDS011;530;51.448;7.238;2023-07-13T13:51:48;3.30;;;2.70;;
1082;SDS011;530;51.448;7.238;2023-07-13T13:54:16;4.60;;;3.10;;
1082;SDS011;530;51.448;7.238;2023-07-13T13:56:43;4.60;;;3.13;;
1082;SDS011;530;51.448;7.238;2023-07-13T13:59:11;3.97;;;3.27;;
1082;SDS011;530;51.448;7.238;2023-07-13T14:01:37;6.90;;;3.20;;
1082;SDS011;530;51.448;7.238;2023-07-13T14:04:04;4.47;;;3.77;;
1082;SDS011;530;51.448;7.238;2023-07-13T14:06:31;3.73;;;3.27;;
1082;SDS011;530;51.448;7.238;2023-07-13T14:08:59;3.60;;;3.30;;
1082;SDS011;530;51.448;7.238;2023-07-13T14:11:26;4.60;;;3.87;;
1082;SDS011;530;51.448;7.238;2023-07-13T14:13:55;9.07;;;4.83;;
1082;SDS011;530;51.448;7.238;2023-07-13T14:16:25;4.80;;;3.97;;
1082;SDS011;530;51.448;7.238;2023-07-13T14:18:54;3.50;;;3.20;;
1082;SDS011;530;51.448;7.238;2023-07-13T14:21:23;5.60;;;3.60;;
1082;SDS011;530;51.448;7.238;2023-07-13T14:23:49;3.50;;;3.20;;
1082;SDS011;530;51.448;7.238;2023-07-13T14:28:43;5.07;;;3.70;;
1082;SDS011;530;51.448;7.238;2023-07-13T14:31:11;8.13;;;4.60;;
1082;SDS011;530;51.448;7.238;2023-07-13T14:33:38;5.13;;;3.57;;
1082;SDS011;530;51.448;7.238;2023-07-13T14:36:09;5.73;;;3.80;;
1082;SDS011;530;51.448;7.238;2023-07-13T14:38:54;4.23;;;3.80;;
1082;SDS011;530;51.448;7.238;2023-07-13T14:41:20;5.73;;;3.50;;
1082;SDS011;530;51.448;7.238;2023-07-13T14:43:46;5.13;;;4.40;;
1082;SDS011;530;51.448;7.238;2023-07-13T14:48:52;7.00;;;4.43;;
1082;SDS011;530;51.448;7.238;2023-07-13T14:51:24;6.13;;;4.97;;
1082;SDS011;530;51.448;7.238;2023-07-13T14:53:50;7.33;;;5.00;;
1082;SDS011;530;51.448;7.238;2023-07-13T14:56:16;5.57;;;5.00;;
1082;SDS011;530;51.448;7.238;2023-07-13T14:58:42;8.20;;;5.60;;
1082;SDS011;530;51.448;7.238;2023-07-13T15:01:14;6.77;;;5.20;;
1082;SDS011;530;51.448;7.238;2023-07-13T15:03:43;6.27;;;4.80;;
1082;SDS011;530;51.448;7.238;2023-07-13T15:06:11;5.43;;;4.70;;
1082;SDS011;530;51.448;7.238;2023-07-13T15:08:38;5.47;;;4.90;;
1082;SDS011;530;51.448;7.238;2023-07-13T15:11:06;5.13;;;4.63;;
1082;SDS011;530;51.448;7.238;2023-07-13T15:13:38;4.93;;;4.50;;
1082;SDS011;530;51.448;7.238;2023-07-13T15:16:09;5.70;;;4.90;;
1082;SDS011;530;51.448;7.238;2023-07-13T15:18:42;6.80;;;5.00;;
1082;SDS011;530;51.448;7.238;2023-07-13T15:21:11;7.07;;;5.43;;
1082;SDS011;530;51.448;7.238;2023-07-13T15:23:46;7.53;;;4.37;;
1082;SDS011;530;51.448;7.238;2023-07-13T15:26:12;6.90;;;5.30;;
1082;SDS011;530;51.448;7.238;2023-07-13T15:28:40;8.23;;;5.77;;
1082;SDS011;530;51.448;7.238;2023-07-13T15:33:50;5.43;;;4.60;;
1082;SDS011;530;51.448;7.238;2023-07-13T15:36:20;6.00;;;4.37;;
1082;SDS011;530;51.448;7.238;2023-07-13T15:38:47;6.67;;;4.60;;
1082;SDS011;530;51.448;7.238;2023-07-13T15:41:19;6.70;;;4.17;;
1082;SDS011;530;51.448;7.238;2023-07-13T15:43:53;6.20;;;4.73;;
1082;SDS011;530;51.448;7.238;2023-07-13T15:46:24;7.27;;;4.67;;
1082;SDS011;530;51.448;7.238;2023-07-13T15:48:51;8.47;;;4.80;;
1082;SDS011;530;51.448;7.238;2023-07-13T15:51:30;5.73;;;5.00;;
1082;SDS011;530;51.448;7.238;2023-07-13T15:54:00;5.13;;;4.10;;
1082;SDS011;530;51.448;7.238;2023-07-13T15:56:29;8.13;;;4.70;;
1082;SDS011;530;51.448;7.238;2023-07-13T15:58:58;7.70;;;4.90;;
1082;SDS011;530;51.448;7.238;2023-07-13T16:01:26;10.70;;;5.20;;
1082;SDS011;530;51.448;7.238;2023-07-13T16:03:52;9.20;;;5.50;;
1082;SDS011;530;51.448;7.238;2023-07-13T16:06:25;8.43;;;5.53;;
1082;SDS011;530;51.448;7.238;2023-07-13T16:09:01;7.23;;;5.00;;
1082;SDS011;530;51.448;7.238;2023-07-13T16:11:32;7.10;;;5.50;;